Time;durP1;ratioP1;P1;durP2;ratioP2;P2;SDS_P1;SDS_P2;PMS_P1;PMS_P2;Temp;Humidity;BMP_temperature;BMP_pressure;BME280_temperature;BME280_humidity;BME280_pressure;Samples;Min_cycle;Max_cycle;Signal;HPM_P1;HPM_P2
2023/08/13 00:00:16;;;;;;;;;;;16.20;99.90;;;;;;5017427;28;22449;-80
2023/08/13 00:02:45;;;;;;;;;;;16.30;99.90;;;;;;5032264;28;19929;-80
2023/08/13 00:05:12;;;;;;;;;;;16.30;99.90;;;;;;5034285;28;19956;-80
2023/08/13 00:07:42;;;;;;;;;;;16.30;99.90;;;;;;5061117;28;19936;-80
2023/08/13 00:10:11;;;;;;;;;;;16.40;99.90;;;;;;5017827;28;20408;-79
2023/08/13 00:12:42;;;;;;;;;;;16.40;99.90;;;;;;5034414;28;20018;-80
2023/08/13 00:15:10;;;;;;;;;;;16.40;99.90;;;;;;5035142;28;19929;-80
2023/08/13 00:17:38;;;;;;;;;;;16.50;99.90;;;;;;5019091;28;20396;-80
2023/08/13 00:20:11;;;;;;;;;;;16.50;99.90;;;;;;5039981;28;19937;-80
2023/08/13 00:22:37;;;;;;;;;;;16.50;99.90;;;;;;5021202;28;19926;-81
2023/08/13 00:25:07;;;;;;;;;;;16.50;99.90;;;;;;5039018;28;19925;-80
2023/08/13 00:27:33;;;;;;;;;;;16.50;99.90;;;;;;5022270;28;19933;-80
2023/08/13 00:29:58;;;;;;;;;;;16.50;99.90;;;;;;5002519;28;19929;-80
2023/08/13 00:32:25;;;;;;;;;;;16.60;99.90;;;;;;5035086;28;19925;-80
2023/08/13 00:34:54;;;;;;;;;;;16.60;99.90;;;;;;5015476;28;19925;-80
2023/08/13 00:37:22;;;;;;;;;;;16.60;99.90;;;;;;5018843;28;19926;-80
2023/08/13 00:39:52;;;;;;;;;;;16.60;99.90;;;;;;5034528;28;19981;-80
2023/08/13 00:42:19;;;;;;;;;;;16.70;99.90;;;;;;5022154;28;19929;-80
2023/08/13 00:44:45;;;;;;;;;;;16.70;99.90;;;;;;5005812;28;19956;-80
2023/08/13 00:47:10;;;;;;;;;;;16.70;99.90;;;;;;5036411;28;19945;-80
2023/08/13 00:49:36;;;;;;;;;;;16.70;99.90;;;;;;5018072;28;19935;-80
2023/08/13 00:52:03;;;;;;;;;;;16.70;99.90;;;;;;5032461;28;19925;-80
2023/08/13 00:54:31;;;;;;;;;;;16.70;99.90;;;;;;5019081;28;19991;-80
2023/08/13 00:56:58;;;;;;;;;;;16.60;99.90;;;;;;5000654;28;20526;-80
2023/08/13 00:59:25;;;;;;;;;;;16.60;99.90;;;;;;5032212;28;19925;-80
2023/08/13 01:01:51;;;;;;;;;;;16.60;99.90;;;;;;5000091;28;19989;-80
2023/08/13 01:04:18;;;;;;;;;;;16.50;99.90;;;;;;5035346;28;19926;-80
2023/08/13 01:06:44;;;;;;;;;;;16.40;99.90;;;;;;5001246;28;19929;-80
2023/08/13 01:09:21;;;;;;;;;;;16.40;99.90;;;;;;5035715;28;19929;-80
2023/08/13 01:11:48;;;;;;;;;;;16.30;99.90;;;;;;5016697;28;19987;-81
2023/08/13 01:14:22;;;;;;;;;;;16.30;99.90;;;;;;5047254;28;19984;-81
2023/08/13 01:16:47;;;;;;;;;;;16.30;99.90;;;;;;5032162;28;19964;-80
2023/08/13 01:19:17;;;;;;;;;;;16.20;99.90;;;;;;5053682;28;19925;-80
2023/08/13 01:21:52;;;;;;;;;;;16.10;99.90;;;;;;5001068;28;19933;-80
2023/08/13 01:24:18;;;;;;;;;;;16.00;99.90;;;;;;5034537;28;19929;-80
2023/08/13 01:27:06;;;;;;;;;;;16.00;99.90;;;;;;5032138;28;19948;-79
2023/08/13 01:29:42;;;;;;;;;;;16.00;99.90;;;;;;5041265;28;19975;-80
2023/08/13 01:32:09;;;;;;;;;;;15.90;99.90;;;;;;5037288;28;19925;-80
2023/08/13 01:34:36;;;;;;;;;;;15.90;99.90;;;;;;5007706;28;19925;-81
2023/08/13 01:37:03;;;;;;;;;;;15.90;99.90;;;;;;5031395;28;19968;-80
2023/08/13 01:39:29;;;;;;;;;;;15.90;99.90;;;;;;5020711;28;19929;-80
2023/08/13 01:42:02;;;;;;;;;;;15.80;99.90;;;;;;5036888;28;19936;-80
2023/08/13 01:44:28;;;;;;;;;;;15.80;99.90;;;;;;5026916;28;20376;-80
2023/08/13 01:46:54;;;;;;;;;;;15.80;99.90;;;;;;5021316;28;19929;-81
2023/08/13 01:49:20;;;;;;;;;;;15.80;99.90;;;;;;5071312;28;19936;-80
2023/08/13 01:51:47;;;;;;;;;;;15.70;99.90;;;;;;5019792;28;19925;-80
2023/08/13 01:54:12;;;;;;;;;;;15.70;99.90;;;;;;5021459;28;19933;-80
2023/08/13 01:56:44;;;;;;;;;;;15.70;99.90;;;;;;5034108;28;20008;-79
2023/08/13 01:59:09;;;;;;;;;;;15.70;99.90;;;;;;5017925;28;19925;-80
2023/08/13 02:01:35;;;;;;;;;;;15.60;99.90;;;;;;5016327;28;20335;-80
2023/08/13 02:04:02;;;;;;;;;;;15.60;99.90;;;;;;5030475;28;20125;-79
2023/08/13 02:06:32;;;;;;;;;;;15.60;99.90;;;;;;5017583;28;19925;-80
2023/08/13 02:08:59;;;;;;;;;;;15.60;99.90;;;;;;5060823;28;19925;-80
2023/08/13 02:11:24;;;;;;;;;;;15.50;99.90;;;;;;5018809;28;19933;-79
2023/08/13 02:13:51;;;;;;;;;;;15.50;99.90;;;;;;5021560;28;19924;-80
2023/08/13 02:16:22;;;;;;;;;;;15.50;99.90;;;;;;5016824;28;19936;-80
2023/08/13 02:18:49;;;;;;;;;;;15.50;99.90;;;;;;5064484;28;19936;-80
2023/08/13 02:21:17;;;;;;;;;;;15.50;99.90;;;;;;5031694;28;19933;-80
2023/08/13 02:23:43;;;;;;;;;;;15.50;99.90;;;;;;5032598;28;20411;-79
2023/08/13 02:26:09;;;;;;;;;;;15.40;99.90;;;;;;5015639;28;19925;-79
2023/08/13 02:28:36;;;;;;;;;;;15.40;99.90;;;;;;5031760;28;20308;-79
2023/08/13 02:31:02;;;;;;;;;;;15.40;99.90;;;;;;5029233;28;19929;-80
2023/08/13 02:33:28;;;;;;;;;;;15.40;99.90;;;;;;5032468;28;19925;-80
2023/08/13 02:35:53;;;;;;;;;;;15.40;99.90;;;;;;4998787;28;19979;-79
2023/08/13 02:38:22;;;;;;;;;;;15.40;99.90;;;;;;5032848;28;19933;-79
2023/08/13 02:40:53;;;;;;;;;;;15.40;99.90;;;;;;5002082;28;19940;-79
2023/08/13 02:43:19;;;;;;;;;;;15.40;99.90;;;;;;5037344;28;19925;-80
2023/08/13 02:45:46;;;;;;;;;;;15.40;99.90;;;;;;5040491;28;19932;-80
2023/08/13 02:48:13;;;;;;;;;;;15.40;99.90;;;;;;5036004;28;19925;-80
2023/08/13 02:50:38;;;;;;;;;;;15.40;99.90;;;;;;5017521;28;19936;-80
2023/08/13 02:53:04;;;;;;;;;;;15.40;99.90;;;;;;5016231;28;19925;-79
2023/08/13 02:55:35;;;;;;;;;;;15.30;99.90;;;;;;5000272;28;19951;-79
2023/08/13 02:58:01;;;;;;;;;;;15.30;99.90;;;;;;5000858;28;19929;-80
2023/08/13 03:00:27;;;;;;;;;;;15.30;99.90;;;;;;4998446;28;19984;-80
2023/08/13 03:02:52;;;;;;;;;;;15.30;99.90;;;;;;5000926;28;19933;-79
2023/08/13 03:05:22;;;;;;;;;;;15.30;99.90;;;;;;5031673;28;19992;-79
2023/08/13 03:07:47;;;;;;;;;;;15.30;99.90;;;;;;5000952;28;19926;-80
2023/08/13 03:10:21;;;;;;;;;;;15.20;99.90;;;;;;5035415;28;19999;-80
2023/08/13 03:12:49;;;;;;;;;;;15.20;99.90;;;;;;5034116;28;20377;-80
2023/08/13 03:15:17;;;;;;;;;;;15.30;99.90;;;;;;5024115;28;19925;-80
2023/08/13 03:17:42;;;;;;;;;;;15.30;99.90;;;;;;5017330;28;19940;-80
2023/08/13 03:20:08;;;;;;;;;;;15.30;99.90;;;;;;5020604;28;19929;-80
2023/08/13 03:22:37;;;;;;;;;;;15.20;99.90;;;;;;5018488;28;19925;-80
2023/08/13 03:25:03;;;;;;;;;;;15.20;99.90;;;;;;5019013;28;19962;-80
2023/08/13 03:27:29;;;;;;;;;;;15.20;99.90;;;;;;5035131;28;19929;-80
2023/08/13 03:29:55;;;;;;;;;;;15.20;99.90;;;;;;5019777;28;19925;-80
2023/08/13 03:32:20;;;;;;;;;;;15.10;99.90;;;;;;5003750;28;20458;-79
2023/08/13 03:34:47;;;;;;;;;;;15.10;99.90;;;;;;5034627;28;20066;-80
2023/08/13 03:37:19;;;;;;;;;;;15.10;99.90;;;;;;5035535;28;20004;-80
2023/08/13 03:39:45;;;;;;;;;;;15.10;99.90;;;;;;5035393;28;19932;-80
2023/08/13 03:42:12;;;;;;;;;;;15.10;99.90;;;;;;5002644;28;20384;-80
2023/08/13 03:44:42;;;;;;;;;;;15.10;99.90;;;;;;5065578;28;19976;-80
2023/08/13 03:47:08;;;;;;;;;;;15.10;99.90;;;;;;5018674;28;19925;-80
2023/08/13 03:49:34;;;;;;;;;;;15.10;99.90;;;;;;5034682;28;19940;-80
2023/08/13 03:52:03;;;;;;;;;;;15.10;99.90;;;;;;5034096;28;19929;-80
2023/08/13 03:54:35;;;;;;;;;;;15.10;99.90;;;;;;5035719;28;19940;-80
2023/08/13 03:57:04;;;;;;;;;;;15.00;99.90;;;;;;5051104;28;19987;-80
2023/08/13 03:59:32;;;;;;;;;;;15.00;99.90;;;;;;5034658;28;20425;-80
2023/08/13 04:01:58;;;;;;;;;;;15.00;99.90;;;;;;5020307;28;19967;-80
2023/08/13 04:04:25;;;;;;;;;;;15.00;99.90;;;;;;5049976;28;20273;-79
2023/08/13 04:06:54;;;;;;;;;;;14.90;99.90;;;;;;5019115;28;19979;-79
2023/08/13 04:09:19;;;;;;;;;;;14.90;99.90;;;;;;5017356;28;19925;-79
2023/08/13 04:11:51;;;;;;;;;;;14.90;99.90;;;;;;5004223;28;19932;-79
2023/08/13 04:14:19;;;;;;;;;;;14.90;99.90;;;;;;5035839;28;19931;-79
2023/08/13 04:16:51;;;;;;;;;;;14.80;99.90;;;;;;5019994;28;19951;-80
2023/08/13 04:19:16;;;;;;;;;;;14.90;99.90;;;;;;5004915;28;19925;-80
2023/08/13 04:21:45;;;;;;;;;;;14.90;99.90;;;;;;5039176;28;19925;-80
2023/08/13 04:24:11;;;;;;;;;;;14.90;99.90;;;;;;5039795;28;19932;-80
2023/08/13 04:26:40;;;;;;;;;;;14.90;99.90;;;;;;5039744;28;19931;-80
2023/08/13 04:29:07;;;;;;;;;;;15.00;99.90;;;;;;5072811;28;19968;-80
2023/08/13 04:31:32;;;;;;;;;;;15.00;99.90;;;;;;5038351;28;19928;-79
2023/08/13 04:33:59;;;;;;;;;;;15.00;99.90;;;;;;5008104;28;19944;-80
2023/08/13 04:36:25;;;;;;;;;;;15.00;99.90;;;;;;5022344;28;19929;-79
2023/08/13 04:38:50;;;;;;;;;;;15.00;99.90;;;;;;5043687;28;19933;-79
2023/08/13 04:41:16;;;;;;;;;;;15.00;99.90;;;;;;5037297;28;19929;-79
2023/08/13 04:43:42;;;;;;;;;;;15.10;99.90;;;;;;5005666;28;19984;-79
2023/08/13 04:46:07;;;;;;;;;;;15.10;99.90;;;;;;5072693;28;19925;-80
2023/08/13 04:48:40;;;;;;;;;;;15.20;99.90;;;;;;5041373;28;19932;-79
2023/08/13 04:51:06;;;;;;;;;;;15.20;99.90;;;;;;5066442;28;19929;-79
2023/08/13 04:53:31;;;;;;;;;;;15.30;99.90;;;;;;5001834;28;20015;-80
2023/08/13 04:56:01;;;;;;;;;;;15.30;99.90;;;;;;5033167;28;20739;-79
2023/08/13 04:58:34;;;;;;;;;;;15.40;99.90;;;;;;5035042;28;19932;-80
2023/08/13 05:01:00;;;;;;;;;;;15.40;99.90;;;;;;5000472;28;20099;-80
2023/08/13 05:03:26;;;;;;;;;;;15.40;99.90;;;;;;5065672;28;20008;-80
2023/08/13 05:05:52;;;;;;;;;;;15.50;99.90;;;;;;5031791;28;19933;-80
2023/08/13 05:08:18;;;;;;;;;;;15.60;99.90;;;;;;5017532;28;19925;-81
2023/08/13 05:10:47;;;;;;;;;;;15.70;99.90;;;;;;5017663;28;19929;-79
2023/08/13 05:13:14;;;;;;;;;;;15.90;99.90;;;;;;5032991;28;19925;-80
2023/08/13 05:15:42;;;;;;;;;;;16.20;99.90;;;;;;5033614;28;19929;-79
2023/08/13 05:18:08;;;;;;;;;;;16.30;99.90;;;;;;5002190;28;20458;-79
2023/08/13 05:20:36;;;;;;;;;;;16.20;99.90;;;;;;5024513;28;19929;-80
2023/08/13 05:23:05;;;;;;;;;;;16.20;99.90;;;;;;5064024;28;19926;-80
2023/08/13 05:25:38;;;;;;;;;;;16.20;99.90;;;;;;5016842;28;19992;-79
2023/08/13 05:28:10;;;;;;;;;;;16.50;99.90;;;;;;5034133;28;19996;-80
2023/08/13 05:30:37;;;;;;;;;;;16.80;99.90;;;;;;5019999;28;19932;-80
2023/08/13 05:33:04;;;;;;;;;;;17.00;99.90;;;;;;5037086;28;19976;-80
2023/08/13 05:35:29;;;;;;;;;;;17.00;99.90;;;;;;5054152;28;19936;-80
2023/08/13 05:37:55;;;;;;;;;;;17.00;99.90;;;;;;5021510;28;19968;-80
2023/08/13 05:40:21;;;;;;;;;;;17.10;99.90;;;;;;5037816;28;19991;-80
2023/08/13 05:42:47;;;;;;;;;;;17.40;99.90;;;;;;5022951;28;19925;-81
2023/08/13 05:45:23;;;;;;;;;;;17.80;99.90;;;;;;5026608;28;19980;-80
2023/08/13 05:47:51;;;;;;;;;;;18.50;99.90;;;;;;5050431;28;19983;-80
2023/08/13 05:50:17;;;;;;;;;;;18.80;99.90;;;;;;5037151;28;19929;-80
2023/08/13 05:52:46;;;;;;;;;;;19.10;99.90;;;;;;5026060;28;19924;-82
2023/08/13 05:55:12;;;;;;;;;;;19.10;99.90;;;;;;5036290;28;20052;-80
2023/08/13 05:57:40;;;;;;;;;;;18.80;99.90;;;;;;5037606;28;19929;-81
2023/08/13 06:00:09;;;;;;;;;;;18.50;99.90;;;;;;5035442;28;19928;-80
2023/08/13 06:02:38;;;;;;;;;;;18.10;99.90;;;;;;5014563;28;19931;-81
2023/08/13 06:05:06;;;;;;;;;;;17.80;99.90;;;;;;5027368;28;19956;-81
2023/08/13 06:07:34;;;;;;;;;;;17.70;99.90;;;;;;5032082;28;19933;-82
2023/08/13 06:10:02;;;;;;;;;;;17.50;99.90;;;;;;5031767;28;19932;-81
2023/08/13 06:12:29;;;;;;;;;;;17.50;99.90;;;;;;5062794;28;19925;-81
2023/08/13 06:14:57;;;;;;;;;;;17.50;99.90;;;;;;5017706;28;19944;-81
2023/08/13 06:17:27;;;;;;;;;;;17.70;99.90;;;;;;5031555;28;20032;-81
2023/08/13 06:19:57;;;;;;;;;;;18.10;99.90;;;;;;5034318;28;19933;-81
2023/08/13 06:22:24;;;;;;;;;;;18.20;99.90;;;;;;5031385;28;19971;-81
2023/08/13 06:24:54;;;;;;;;;;;18.20;99.90;;;;;;5031378;28;19929;-82
2023/08/13 06:27:22;;;;;;;;;;;18.10;99.90;;;;;;5012907;28;19937;-84
2023/08/13 06:29:47;;;;;;;;;;;18.10;99.90;;;;;;5028446;28;19926;-81
2023/08/13 06:32:13;;;;;;;;;;;18.30;99.90;;;;;;5031380;28;19948;-82
2023/08/13 06:34:39;;;;;;;;;;;18.40;99.90;;;;;;5030377;28;19932;-82
2023/08/13 06:37:05;;;;;;;;;;;18.50;99.90;;;;;;5016416;28;19933;-81
2023/08/13 06:39:30;;;;;;;;;;;18.70;99.90;;;;;;5063268;28;19932;-81
2023/08/13 06:42:00;;;;;;;;;;;19.30;99.90;;;;;;5030192;28;19964;-82
2023/08/13 06:44:27;;;;;;;;;;;20.00;99.90;;;;;;5049487;28;19975;-83
2023/08/13 06:46:54;;;;;;;;;;;20.60;99.90;;;;;;5014836;28;19964;-82
2023/08/13 06:49:20;;;;;;;;;;;21.00;99.90;;;;;;5029442;28;20446;-81
2023/08/13 06:51:52;;;;;;;;;;;21.20;99.90;;;;;;5030124;28;20423;-82
2023/08/13 06:54:18;;;;;;;;;;;21.20;99.90;;;;;;5031875;28;20388;-81
2023/08/13 06:56:43;;;;;;;;;;;21.10;99.90;;;;;;5014658;28;19988;-81
2023/08/13 06:59:09;;;;;;;;;;;20.90;99.90;;;;;;5030946;28;19987;-82
2023/08/13 07:01:44;;;;;;;;;;;21.20;99.90;;;;;;5027864;28;19925;-81
2023/08/13 07:04:16;;;;;;;;;;;21.30;99.90;;;;;;5032615;28;19948;-81
2023/08/13 07:06:43;;;;;;;;;;;21.10;99.90;;;;;;5062535;28;19929;-81
2023/08/13 07:09:08;;;;;;;;;;;20.80;99.90;;;;;;4997043;28;20255;-85
2023/08/13 07:11:36;;;;;;;;;;;20.60;99.90;;;;;;5029956;28;19925;-81
2023/08/13 07:14:04;;;;;;;;;;;20.40;99.90;;;;;;5031569;28;19930;-82
2023/08/13 07:16:30;;;;;;;;;;;20.30;99.90;;;;;;5029426;28;20004;-80
2023/08/13 07:18:56;;;;;;;;;;;20.20;99.90;;;;;;5031743;28;19929;-80
2023/08/13 07:21:22;;;;;;;;;;;20.20;99.90;;;;;;5032319;28;19938;-81
2023/08/13 07:23:50;;;;;;;;;;;20.20;99.90;;;;;;5033117;28;19993;-85
2023/08/13 07:26:16;;;;;;;;;;;20.40;99.90;;;;;;5030765;28;19925;-85
2023/08/13 07:28:41;;;;;;;;;;;20.70;99.90;;;;;;5048426;28;19929;-85
2023/08/13 07:31:07;;;;;;;;;;;21.00;99.90;;;;;;5014517;28;19925;-85
2023/08/13 07:33:32;;;;;;;;;;;21.10;99.90;;;;;;5014927;28;19929;-84
2023/08/13 07:36:02;;;;;;;;;;;21.40;99.90;;;;;;5046163;28;19925;-85
2023/08/13 07:38:28;;;;;;;;;;;21.60;99.90;;;;;;5015921;28;19925;-84
2023/08/13 07:40:55;;;;;;;;;;;21.90;99.90;;;;;;5015138;28;19959;-84
2023/08/13 07:43:21;;;;;;;;;;;22.10;99.90;;;;;;5030714;28;19951;-81
2023/08/13 07:45:46;;;;;;;;;;;22.30;99.90;;;;;;4998716;28;19929;-81
2023/08/13 07:48:12;;;;;;;;;;;22.70;99.90;;;;;;5015989;28;19929;-83
2023/08/13 07:50:37;;;;;;;;;;;23.10;99.90;;;;;;5013774;28;19929;-81
2023/08/13 07:53:04;;;;;;;;;;;23.50;99.90;;;;;;5067256;28;19929;-82
2023/08/13 07:55:30;;;;;;;;;;;23.90;99.90;;;;;;5040506;28;19935;-83
2023/08/13 07:57:55;;;;;;;;;;;24.10;99.90;;;;;;5039512;28;20037;-83
2023/08/13 08:00:21;;;;;;;;;;;24.20;99.90;;;;;;5007369;28;19937;-85
2023/08/13 08:02:46;;;;;;;;;;;24.30;99.90;;;;;;5039357;28;20042;-83
2023/08/13 08:05:12;;;;;;;;;;;24.20;99.90;;;;;;5006356;28;19930;-83
2023/08/13 08:07:39;;;;;;;;;;;24.30;99.90;;;;;;5033511;28;21593;-81
2023/08/13 08:10:06;;;;;;;;;;;24.40;99.90;;;;;;5040202;28;19928;-82
2023/08/13 08:12:31;;;;;;;;;;;24.80;99.90;;;;;;5039625;28;19932;-82
2023/08/13 08:14:57;;;;;;;;;;;25.00;99.90;;;;;;5027108;28;19929;-83
2023/08/13 08:17:22;;;;;;;;;;;24.90;99.90;;;;;;5039062;28;19925;-82
2023/08/13 08:19:48;;;;;;;;;;;24.50;99.90;;;;;;5056850;28;19970;-82
2023/08/13 08:22:14;;;;;;;;;;;24.20;99.90;;;;;;5038941;28;19952;-83
2023/08/13 08:24:40;;;;;;;;;;;24.20;99.90;;;;;;5037978;28;19936;-84
2023/08/13 08:27:07;;;;;;;;;;;24.50;99.90;;;;;;5002249;28;19925;-83
2023/08/13 08:29:33;;;;;;;;;;;24.80;99.90;;;;;;5071956;28;20382;-81
2023/08/13 08:31:59;;;;;;;;;;;25.10;99.90;;;;;;5039511;28;19925;-83
2023/08/13 08:34:25;;;;;;;;;;;25.50;99.90;;;;;;5034871;28;19929;-82
2023/08/13 08:36:51;;;;;;;;;;;25.80;99.90;;;;;;5035275;28;19925;-83
2023/08/13 08:39:18;;;;;;;;;;;26.10;99.90;;;;;;5040569;28;19972;-82
2023/08/13 08:41:47;;;;;;;;;;;26.20;99.90;;;;;;5056139;28;19931;-82
2023/08/13 08:44:22;;;;;;;;;;;26.00;99.90;;;;;;5023076;28;19992;-82
2023/08/13 08:46:51;;;;;;;;;;;25.90;99.90;;;;;;5022276;28;20005;-81
2023/08/13 08:49:18;;;;;;;;;;;26.00;99.90;;;;;;5053718;28;20217;-82
2023/08/13 08:51:44;;;;;;;;;;;26.10;99.90;;;;;;5022710;28;19988;-82
2023/08/13 08:54:09;;;;;;;;;;;26.20;99.90;;;;;;5004740;28;19971;-82
2023/08/13 08:56:35;;;;;;;;;;;26.30;99.90;;;;;;5031988;28;20044;-83
2023/08/13 08:59:01;;;;;;;;;;;26.30;99.90;;;;;;5019170;28;19957;-82
2023/08/13 09:01:26;;;;;;;;;;;26.30;99.90;;;;;;5033543;28;19931;-82
2023/08/13 09:03:52;;;;;;;;;;;26.40;99.90;;;;;;5034188;28;19933;-83
2023/08/13 09:06:17;;;;;;;;;;;26.50;99.90;;;;;;5034315;28;20058;-81
2023/08/13 09:08:43;;;;;;;;;;;26.50;99.90;;;;;;5018637;28;19932;-82
2023/08/13 09:11:09;;;;;;;;;;;26.40;99.90;;;;;;5001985;28;19929;-82
2023/08/13 09:13:34;;;;;;;;;;;26.40;99.90;;;;;;5033228;28;19933;-81
2023/08/13 09:16:00;;;;;;;;;;;26.50;99.90;;;;;;5067366;28;20017;-82
2023/08/13 09:18:26;;;;;;;;;;;26.50;99.90;;;;;;5020190;28;19925;-81
2023/08/13 09:20:51;;;;;;;;;;;26.40;99.90;;;;;;5039030;28;19925;-84
2023/08/13 09:23:21;;;;;;;;;;;26.30;99.90;;;;;;5021927;28;19925;-82
2023/08/13 09:25:57;;;;;;;;;;;26.40;99.90;;;;;;5022834;28;19984;-81
2023/08/13 09:28:23;;;;;;;;;;;26.40;99.90;;;;;;5038428;28;19932;-83
2023/08/13 09:30:49;;;;;;;;;;;26.20;99.90;;;;;;5021768;28;19929;-83
2023/08/13 09:33:16;;;;;;;;;;;26.10;99.90;;;;;;5038612;28;19925;-81
2023/08/13 09:35:42;;;;;;;;;;;26.10;99.90;;;;;;5022135;28;19933;-81
2023/08/13 09:38:08;;;;;;;;;;;26.10;99.90;;;;;;5021491;28;19948;-82
2023/08/13 09:40:34;;;;;;;;;;;26.20;99.90;;;;;;5038163;28;19925;-83
2023/08/13 09:43:06;;;;;;;;;;;26.30;99.90;;;;;;5054829;28;20404;-83
2023/08/13 09:45:32;;;;;;;;;;;26.50;99.90;;;;;;5055818;28;19960;-83
2023/08/13 09:47:59;;;;;;;;;;;26.70;99.90;;;;;;5036291;28;19926;-82
2023/08/13 09:50:26;;;;;;;;;;;26.80;99.90;;;;;;5020368;28;19929;-81
2023/08/13 09:52:52;;;;;;;;;;;26.90;99.90;;;;;;5052663;28;20120;-82
2023/08/13 09:55:20;;;;;;;;;;;26.90;99.90;;;;;;5035940;28;20377;-82
2023/08/13 09:57:46;;;;;;;;;;;27.00;99.90;;;;;;5053141;28;19929;-81
2023/08/13 10:00:12;;;;;;;;;;;27.10;99.90;;;;;;5036515;28;19925;-82
2023/08/13 10:02:38;;;;;;;;;;;26.90;99.90;;;;;;5011681;28;19936;-83
2023/08/13 10:05:04;;;;;;;;;;;26.90;99.90;;;;;;5051094;28;19929;-83
2023/08/13 10:07:30;;;;;;;;;;;27.00;99.90;;;;;;5050616;28;20362;-83
2023/08/13 10:09:57;;;;;;;;;;;26.70;99.90;;;;;;5052109;28;19933;-82
2023/08/13 10:12:22;;;;;;;;;;;26.60;99.90;;;;;;5034081;28;20165;-82
2023/08/13 10:14:48;;;;;;;;;;;26.40;99.90;;;;;;5034309;28;19929;-84
2023/08/13 10:17:16;;;;;;;;;;;26.10;99.90;;;;;;5016290;28;20005;-81
2023/08/13 10:19:45;;;;;;;;;;;25.70;99.90;;;;;;5032669;28;20400;-81
2023/08/13 10:22:11;;;;;;;;;;;25.20;99.90;;;;;;5049382;28;19984;-82
2023/08/13 10:24:37;;;;;;;;;;;24.90;99.90;;;;;;5067095;28;19965;-82
2023/08/13 10:27:03;;;;;;;;;;;24.60;99.90;;;;;;5031713;28;20420;-82
2023/08/13 10:29:36;;;;;;;;;;;24.30;99.90;;;;;;5043857;28;19929;-82
2023/08/13 10:32:10;;;;;;;;;;;24.00;99.90;;;;;;5061146;28;20000;-80
2023/08/13 10:34:50;;;;;;;;;;;24.00;99.90;;;;;;5027577;28;19929;-82
2023/08/13 10:37:17;;;;;;;;;;;24.00;99.90;;;;;;5049369;28;20295;-82
2023/08/13 10:39:43;;;;;;;;;;;24.00;99.90;;;;;;5031007;28;19948;-69
2023/08/13 10:42:27;;;;;;;;;;;24.00;99.90;;;;;;5014169;28;19977;-69
2023/08/13 10:44:53;;;;;;;;;;;23.90;99.90;;;;;;5030581;28;19929;-69
2023/08/13 10:47:19;;;;;;;;;;;23.80;99.90;;;;;;5033156;28;19929;-70
2023/08/13 10:49:44;;;;;;;;;;;23.80;99.90;;;;;;5035540;28;19925;-70
2023/08/13 10:52:13;;;;;;;;;;;23.80;99.90;;;;;;5037459;28;19979;-69
2023/08/13 10:54:39;;;;;;;;;;;23.90;99.90;;;;;;5037809;28;19936;-70
2023/08/13 10:57:05;;;;;;;;;;;24.00;99.90;;;;;;5036848;28;19929;-69
2023/08/13 10:59:31;;;;;;;;;;;24.20;99.90;;;;;;5037654;28;20479;-70
2023/08/13 11:02:16;;;;;;;;;;;24.50;99.90;;;;;;5031770;28;19933;-69
2023/08/13 11:04:43;;;;;;;;;;;24.70;99.90;;;;;;5036359;28;19992;-69
2023/08/13 11:07:09;;;;;;;;;;;24.80;99.90;;;;;;5038055;28;19983;-69
2023/08/13 11:09:35;;;;;;;;;;;24.80;99.90;;;;;;5036215;28;19936;-70
2023/08/13 11:12:01;;;;;;;;;;;24.70;99.90;;;;;;5035062;28;19929;-70
2023/08/13 11:14:28;;;;;;;;;;;24.50;99.90;;;;;;5032935;28;19939;-70
2023/08/13 11:16:53;;;;;;;;;;;24.40;99.90;;;;;;5034896;28;19948;-69
2023/08/13 11:19:19;;;;;;;;;;;24.30;99.90;;;;;;5028340;28;19932;-69
2023/08/13 11:21:45;;;;;;;;;;;24.20;99.90;;;;;;5033863;28;20526;-70
2023/08/13 11:24:11;;;;;;;;;;;24.30;99.90;;;;;;5034786;28;19929;-69
2023/08/13 11:26:38;;;;;;;;;;;24.40;99.90;;;;;;5034294;28;19971;-69
2023/08/13 11:29:04;;;;;;;;;;;24.50;99.90;;;;;;5036276;28;20008;-69
2023/08/13 11:31:29;;;;;;;;;;;24.40;99.90;;;;;;5036807;28;19964;-69
2023/08/13 11:33:56;;;;;;;;;;;24.40;99.90;;;;;;5036307;28;19971;-69
2023/08/13 11:36:22;;;;;;;;;;;24.20;99.90;;;;;;5039733;28;19989;-69
2023/08/13 11:38:47;;;;;;;;;;;24.00;99.90;;;;;;5040012;28;19929;-69
2023/08/13 11:41:13;;;;;;;;;;;23.80;99.90;;;;;;5034906;28;19947;-69
2023/08/13 11:43:39;;;;;;;;;;;23.50;99.90;;;;;;5034549;28;19929;-69
2023/08/13 11:46:05;;;;;;;;;;;23.30;99.90;;;;;;5038550;28;19925;-70
2023/08/13 11:48:31;;;;;;;;;;;23.00;99.90;;;;;;5036197;28;19925;-74
2023/08/13 11:51:11;;;;;;;;;;;22.90;99.90;;;;;;5031059;28;19936;-69
2023/08/13 11:53:43;;;;;;;;;;;22.70;99.90;;;;;;5033788;28;19929;-69
2023/08/13 11:56:13;;;;;;;;;;;22.50;99.90;;;;;;5034006;28;19936;-69
2023/08/13 11:58:39;;;;;;;;;;;22.30;99.90;;;;;;5037618;28;19964;-69
2023/08/13 12:01:04;;;;;;;;;;;22.20;99.90;;;;;;5032724;28;19933;-69
2023/08/13 12:03:40;;;;;;;;;;;22.20;99.90;;;;;;5035955;28;19931;-69
2023/08/13 12:06:05;;;;;;;;;;;22.10;99.90;;;;;;5028640;28;19936;-70
2023/08/13 12:08:31;;;;;;;;;;;22.00;99.90;;;;;;5029155;28;19929;-81
2023/08/13 12:10:57;;;;;;;;;;;22.00;99.90;;;;;;5013743;28;19965;-80
2023/08/13 12:13:27;;;;;;;;;;;22.10;99.90;;;;;;4999289;28;19951;-81
2023/08/13 12:15:53;;;;;;;;;;;22.20;99.90;;;;;;5030130;28;19948;-81
2023/08/13 12:18:19;;;;;;;;;;;22.30;99.90;;;;;;5017130;28;20388;-81
2023/08/13 12:20:44;;;;;;;;;;;22.50;99.90;;;;;;5014624;28;19929;-81
2023/08/13 12:23:13;;;;;;;;;;;22.70;99.90;;;;;;5066922;28;19940;-80
2023/08/13 12:25:39;;;;;;;;;;;23.10;99.90;;;;;;5017532;28;20012;-81
2023/08/13 12:28:15;;;;;;;;;;;23.40;99.90;;;;;;5041817;28;19932;-79
2023/08/13 12:30:41;;;;;;;;;;;23.60;99.90;;;;;;5011981;28;19926;-80
2023/08/13 12:33:13;;;;;;;;;;;23.80;99.90;;;;;;5032634;28;19935;-81
2023/08/13 12:35:39;;;;;;;;;;;24.00;99.90;;;;;;5008115;28;19965;-79
2023/08/13 12:38:06;;;;;;;;;;;24.20;99.90;;;;;;5068839;28;19932;-80
2023/08/13 12:40:36;;;;;;;;;;;24.20;99.90;;;;;;5016812;28;19925;-80
2023/08/13 12:43:02;;;;;;;;;;;24.20;99.90;;;;;;5021528;28;19929;-80
2023/08/13 12:45:35;;;;;;;;;;;24.20;99.90;;;;;;5054823;28;19992;-80
2023/08/13 12:48:11;;;;;;;;;;;24.10;99.90;;;;;;5032891;28;19925;-80
2023/08/13 12:50:36;;;;;;;;;;;24.10;99.90;;;;;;5014248;28;20015;-80
2023/08/13 12:53:12;;;;;;;;;;;24.00;99.90;;;;;;5039119;28;19936;-80
2023/08/13 12:55:39;;;;;;;;;;;23.90;99.90;;;;;;5054020;28;19957;-81
2023/08/13 12:58:07;;;;;;;;;;;23.80;99.90;;;;;;5069231;28;19933;-79
2023/08/13 13:00:33;;;;;;;;;;;23.80;99.90;;;;;;5037966;28;19932;-80
2023/08/13 13:03:03;;;;;;;;;;;23.70;99.90;;;;;;5055133;28;19925;-80
2023/08/13 13:05:36;;;;;;;;;;;23.80;99.90;;;;;;5053863;28;19932;-81
2023/08/13 13:08:07;;;;;;;;;;;23.90;99.90;;;;;;5039260;28;19944;-80
2023/08/13 13:10:36;;;;;;;;;;;24.10;99.90;;;;;;5035012;28;20776;-80
2023/08/13 13:13:07;;;;;;;;;;;24.10;99.90;;;;;;5027819;28;20082;-82
2023/08/13 13:15:35;;;;;;;;;;;24.20;99.90;;;;;;5035990;28;19931;-82
2023/08/13 13:18:05;;;;;;;;;;;24.10;99.90;;;;;;5031955;28;19939;-82
2023/08/13 13:20:32;;;;;;;;;;;23.90;99.90;;;;;;5016314;28;19933;-81
2023/08/13 13:22:57;;;;;;;;;;;23.80;99.90;;;;;;5000282;28;19989;-82
2023/08/13 13:25:30;;;;;;;;;;;23.70;99.90;;;;;;5029117;28;19940;-81
2023/08/13 13:28:00;;;;;;;;;;;23.60;99.90;;;;;;5039593;28;19933;-81
2023/08/13 13:30:28;;;;;;;;;;;23.50;99.90;;;;;;5049202;28;19989;-82
2023/08/13 13:32:55;;;;;;;;;;;23.50;99.90;;;;;;5032478;28;19925;-82
2023/08/13 13:35:22;;;;;;;;;;;23.40;99.90;;;;;;5049019;28;19936;-81
2023/08/13 13:37:50;;;;;;;;;;;23.50;99.90;;;;;;5027267;28;19929;-81
2023/08/13 13:40:20;;;;;;;;;;;23.60;99.90;;;;;;5018430;28;19964;-81
2023/08/13 13:42:46;;;;;;;;;;;23.80;99.90;;;;;;5034401;28;19974;-82
2023/08/13 13:45:12;;;;;;;;;;;24.10;99.90;;;;;;5017860;28;19965;-81
2023/08/13 13:47:38;;;;;;;;;;;24.20;99.90;;;;;;5025223;28;19924;-82
2023/08/13 13:50:07;;;;;;;;;;;24.30;99.90;;;;;;5017016;28;19929;-83
2023/08/13 13:52:34;;;;;;;;;;;24.30;99.90;;;;;;5029230;28;19964;-82
2023/08/13 13:55:01;;;;;;;;;;;24.30;99.90;;;;;;5026345;28;20513;-82
2023/08/13 13:57:29;;;;;;;;;;;24.30;99.90;;;;;;5044536;28;19925;-81
2023/08/13 14:00:00;;;;;;;;;;;24.20;99.90;;;;;;5062306;28;19925;-82
2023/08/13 14:02:26;;;;;;;;;;;24.20;99.90;;;;;;5052338;28;19929;-83
2023/08/13 14:04:56;;;;;;;;;;;24.10;99.90;;;;;;5062593;28;19964;-82
2023/08/13 14:07:33;;;;;;;;;;;24.10;99.90;;;;;;5049606;28;19926;-82
2023/08/13 14:10:02;;;;;;;;;;;24.00;99.90;;;;;;5033347;28;20040;-82
2023/08/13 14:12:31;;;;;;;;;;;24.00;99.90;;;;;;5061096;28;19925;-82
2023/08/13 14:15:05;;;;;;;;;;;23.80;99.90;;;;;;5063210;28;19936;-81
2023/08/13 14:17:30;;;;;;;;;;;23.60;99.90;;;;;;5029051;28;19932;-80